London-Corbin Arpt-Magee Field (LOZ)

 

Airport Diagram
No Airport Diagram Available
Current Weather/Forecast (VFR Conditions)
METAR KLOZ 191553Z AUTO 21011G17KT 10SM FEW029 BKN039 21/12 A3021 RMK AO2 SLP224 T02060122
TAF KLOZ 191121Z 1912/2012 00000KT P6SM BKN070 OVC110 FM191400 18005KT P6SM BKN100 FM191800 20008KT P6SM SCT060 BKN080 FM192100 VRB04KT P6SM SCT080 BKN100

Airport Information

All Charts
General
Chart Name View
TAKEOFF MINIMUMS
ALTERNATE MINIMUMS
TAKEOFF MINIMUMS
ALTERNATE MINIMUMS

Approaches
Chart Name Download
ILS OR LOC RWY 06
RNAV (GPS) RWY 06
RNAV (GPS) RWY 24
VOR RWY 06
ILS OR LOC RWY 06
RNAV (GPS) RWY 06
RNAV (GPS) RWY 24
VOR RWY 06


Airport Statistics
Departures Arrivals Local
All Collected Stats since June 2016: 24 28 2
2020 Stats: 10 12 1
October Stats: 1 1 1

Inbound Traffic (Arrivals) - 0

No inbound traffic.


Outbound Traffic (Departures) - 0

No outbound traffic.


Local Traffic (Pattern) - 0

No local traffic.